Tokushima Airport
RJOS : now visible

Airfield :











YOU CAN JOIN US ON...

 
LOGIN :

Register | Disclaimer

   EN    FR    IT 

 









Legend :    VFR   Marginal VFR   IFR   Intensive IFR   Very Intensive IFR
Visi :
Ceiling :
>= 8 km
>= 3000ft
5 to 8 km
1000 to 3000 ft
1500m to 5 km
500 to 1000 ft
800 to 1500m
200 to 500 ft
< 800m
< 200 ft
Symbols :   Thunderstorms  Fog  Heavy snow  Heavy precipitations  Wind > 20 kt






- Airport Elevation : 26 ft
- IATA code : TKS


RJOS - Tokushima

CURRENT METAR :
  • 220000Z 35005KT 300V020 9999 FEW012 SCT020 BKN060 20/16 Q1010

EXPIRED METARs :
  • 212300Z 33007KT 9999 FEW020 BKN060 BKN080 19/17 Q1009
  • 212200Z 33007KT 9999 FEW012 BKN020 BKN060 18/16 Q1009
  • 212130Z 33006KT 9999 FEW012 BKN020 BKN050 17/16 Q1009 RMK 2CU012 5CU020 7SC050 A2981
  • 212100Z 33007KT 9999 FEW012 SCT020 BKN050 17/16 Q1009
  • 212000Z 33009KT 9999 FEW012 SCT030 BKN050 17/16 Q1008
  • 211900Z 32006KT 9999 FEW006 BKN015 BKN045 17/16 Q1008

TAF N/A
RJJJ FIR / Asia



MET'MAP, your aeronautical weather chart ! - Copyright ORBIFLY December 2007 - Disclaimer

ORBIFLY MET'MAP TEAM :

Programming & Development : Alexandra Zaïnal
Original concept : Baudouin d'Aumeries
Technical & hardware support : Manuel Goepfert
Assistance : Marc-Olivier Méhu




SOURCES & CREDITS :

   NOAA       Earth
Advisory